createdAt,value
2022-11-29T13:18:54.635Z,75.27
2022-11-29T13:22:28.747Z,74.91
2022-11-29T13:25:58.736Z,75.25
2022-11-29T13:29:27.476Z,75.10
2022-11-29T13:33:00.272Z,74.97
2022-11-29T13:36:39.867Z,74.85
2022-11-29T13:40:21.067Z,75.06
2022-11-29T13:43:53.161Z,74.93
2022-11-29T13:47:21.345Z,74.84
2022-11-29T13:50:51.381Z,74.86
2022-11-29T13:54:32.135Z,74.92
2022-11-29T13:58:20.709Z,74.96
2022-11-29T14:01:52.869Z,74.71
2022-11-29T14:05:33.590Z,74.75
2022-11-29T14:09:20.288Z,74.93
2022-11-29T14:12:54.796Z,75.14
2022-11-29T14:16:30.412Z,75.04
2022-11-29T14:20:33.970Z,74.84
2022-11-29T14:24:42.182Z,75.08
2022-11-29T14:28:31.694Z,74.95
2022-11-29T14:32:00.281Z,75.12
2022-11-29T14:35:35.471Z,75.18
2022-11-29T14:39:14.964Z,75.16
2022-11-29T14:42:49.806Z,75.03
2022-11-29T14:46:29.630Z,74.92
2022-11-29T14:49:58.588Z,75.05
2022-11-29T14:53:37.357Z,74.95
2022-11-29T14:57:40.981Z,75.01
2022-11-29T15:01:10.975Z,75.05
2022-11-29T15:04:40.084Z,75.01
2022-11-29T15:08:13.504Z,75.10
2022-11-29T15:11:56.836Z,74.87
2022-11-29T15:15:46.088Z,74.92
2022-11-29T15:19:50.809Z,74.94
2022-11-29T15:23:19.626Z,75.24
2022-11-29T15:26:59.524Z,75.05
2022-11-29T15:30:48.691Z,75.29
2022-11-29T15:34:24.995Z,75.30
2022-11-29T15:37:53.348Z,75.12
2022-11-29T15:41:28.980Z,74.97
2022-11-29T15:44:55.949Z,75.01
2022-11-29T15:48:25.544Z,75.38
2022-11-29T15:51:57.021Z,75.33
2022-11-29T15:55:24.363Z,75.11
2022-11-29T15:58:52.635Z,74.89
2022-11-29T16:02:22.720Z,75.13
2022-11-29T16:05:56.439Z,74.91
2022-11-29T16:09:36.288Z,74.88
2022-11-29T16:13:06.929Z,74.82
2022-11-29T16:16:35.922Z,74.83
2022-11-29T16:20:24.902Z,74.82
2022-11-29T16:23:51.807Z,74.69
2022-11-29T16:27:20.679Z,74.71
2022-11-29T16:30:58.014Z,74.88
2022-11-29T16:34:33.388Z,74.84
2022-11-29T16:38:00.807Z,74.86
2022-11-29T16:41:36.169Z,75.18
2022-11-29T16:45:07.337Z,75.26
2022-11-29T16:48:38.779Z,75.28
2022-11-29T16:52:24.766Z,74.98
2022-11-29T16:55:53.113Z,74.80
2022-11-29T16:59:27.864Z,74.98
2022-11-29T17:02:58.424Z,74.96
2022-11-29T17:06:26.504Z,75.11
2022-11-29T17:09:54.939Z,75.03
2022-11-29T17:13:21.596Z,74.68
2022-11-29T17:16:50.009Z,74.71
2022-11-29T17:20:17.491Z,74.88
2022-11-29T17:23:44.464Z,74.66
2022-11-29T17:27:12.813Z,74.66
2022-11-29T17:30:41.286Z,74.77
2022-11-29T17:34:11.444Z,74.56
2022-11-29T17:37:41.207Z,74.58
2022-11-29T17:41:18.235Z,74.53
2022-11-29T17:44:47.873Z,74.69
2022-11-29T17:48:15.410Z,74.60
2022-11-29T17:51:51.716Z,74.72
2022-11-29T17:55:20.949Z,74.97
2022-11-29T17:58:52.362Z,75.04
2022-11-29T18:02:19.552Z,75.11
2022-11-29T18:05:46.481Z,75.23
2022-11-29T18:09:14.230Z,75.10
2022-11-29T18:12:41.550Z,74.84
2022-11-29T18:16:13.182Z,75.01
2022-11-29T18:19:40.042Z,74.69
2022-11-29T18:23:08.374Z,74.90
2022-11-29T18:26:36.858Z,74.82
2022-11-29T18:30:09.548Z,74.49
2022-11-29T18:33:36.115Z,74.61
2022-11-29T18:37:03.689Z,74.57
2022-11-29T18:40:31.431Z,74.58
2022-11-29T18:44:03.422Z,74.51
2022-11-29T18:47:33.113Z,74.64
2022-11-29T18:51:04.579Z,74.50
2022-11-29T18:54:31.619Z,74.39
2022-11-29T18:57:58.444Z,74.64
2022-11-29T19:01:26.580Z,74.48
2022-11-29T19:04:53.812Z,74.56
2022-11-29T19:08:20.556Z,74.48
2022-11-29T19:11:49.042Z,74.55
2022-11-29T19:15:17.552Z,74.67
2022-11-29T19:18:44.171Z,74.78
2022-11-29T19:22:13.959Z,74.81
2022-11-29T19:25:40.427Z,74.50
2022-11-29T19:29:07.564Z,74.55
2022-11-29T19:32:38.099Z,74.52
2022-11-29T19:36:12.657Z,74.57
2022-11-29T19:39:39.510Z,74.60
2022-11-29T19:43:06.814Z,74.39
2022-11-29T19:46:35.796Z,74.48
2022-11-29T19:50:03.729Z,74.63
2022-11-29T19:53:35.193Z,74.46
2022-11-29T19:57:03.068Z,74.17
2022-11-29T20:00:31.618Z,74.47
2022-11-29T20:04:07.990Z,74.20
2022-11-29T20:07:35.721Z,74.33
2022-11-29T20:11:10.278Z,74.45
2022-11-29T20:14:41.390Z,74.47
2022-11-29T20:18:08.343Z,74.54
2022-11-29T20:21:35.792Z,74.68
2022-11-29T20:25:03.217Z,74.84
2022-11-29T20:28:32.283Z,75.02
2022-11-29T20:31:58.893Z,74.63
2022-11-29T20:35:26.663Z,74.72
2022-11-29T20:39:01.710Z,74.60
2022-11-29T20:43:07.992Z,74.19
2022-11-29T20:46:35.299Z,74.23
2022-11-29T20:50:03.449Z,74.06
2022-11-29T20:53:39.539Z,74.26
2022-11-29T20:57:06.494Z,74.15
2022-11-29T21:00:36.898Z,74.36
2022-11-29T21:04:04.918Z,74.15
2022-11-29T21:07:31.673Z,74.33
2022-11-29T21:11:06.058Z,74.20
2022-11-29T21:14:35.180Z,74.27
2022-11-29T21:18:03.431Z,74.55
2022-11-29T21:21:34.080Z,74.24
2022-11-29T21:25:14.740Z,74.22
2022-11-29T21:28:50.647Z,74.16
2022-11-29T21:32:24.746Z,74.38
2022-11-29T21:35:58.523Z,74.40
2022-11-29T21:39:31.309Z,74.43
2022-11-29T21:43:04.636Z,74.52
2022-11-29T21:46:33.999Z,74.36
2022-11-29T21:50:00.974Z,74.03
2022-11-29T21:53:29.725Z,73.97
2022-11-29T21:56:57.461Z,73.69
2022-11-29T22:00:27.349Z,73.97
2022-11-29T22:03:55.649Z,74.01
2022-11-29T22:07:22.530Z,74.07
2022-11-29T22:10:49.085Z,74.01
2022-11-29T22:14:18.402Z,74.11
2022-11-29T22:17:46.238Z,74.02
2022-11-29T22:21:13.011Z,74.03
2022-11-29T22:24:40.946Z,73.96
2022-11-29T22:28:10.458Z,74.01
2022-11-29T22:31:38.976Z,74.12
2022-11-29T22:35:06.091Z,74.31
2022-11-29T22:38:33.996Z,74.25
2022-11-29T22:42:00.207Z,74.31
2022-11-29T22:45:28.222Z,74.50
2022-11-29T22:48:56.894Z,74.22
2022-11-29T22:52:23.276Z,74.43
2022-11-29T22:55:50.264Z,74.52
2022-11-29T22:59:17.958Z,74.17
2022-11-29T23:02:45.479Z,74.06
2022-11-29T23:06:14.706Z,73.95
2022-11-29T23:09:44.767Z,74.06
2022-11-29T23:13:12.223Z,74.11
2022-11-29T23:16:38.888Z,74.17
2022-11-29T23:20:07.943Z,74.13
2022-11-29T23:23:38.117Z,74.19
2022-11-29T23:27:05.882Z,74.17
2022-11-29T23:30:33.824Z,73.89
2022-11-29T23:34:00.548Z,74.09
2022-11-29T23:37:47.463Z,73.97
2022-11-29T23:41:31.342Z,73.77
2022-11-29T23:44:58.483Z,74.32
2022-11-29T23:48:25.749Z,74.28
2022-11-29T23:51:54.111Z,74.40
2022-11-29T23:55:25.370Z,74.48
2022-11-29T23:58:59.136Z,74.65
